Georgetown, Delaware
Current Conditions -  °F | °C
As of 8:54 AM on Sunday 25 Jan 2015 (Local Time) from KGED Reporting Station
Broken Clouds Broken Clouds  
Wind Chill:   Ceiling: 4800
Heat Index:   Visibility: 10mi
Dew Point: -2°   Wind: 5mph
Humidity: 67%   Direction: 220°SW
Pressure: 29.84"   Gusts: NA
Location:  38.69°N, 75.39°W
Report Text: KGED 251354Z AUTO 22004KT 10SM BKN048 04/M02 A2984 RMK AO2 SLP105 T00391017
Loading
Personal Weather Stations






























Interactive Weather Map New forecast layout! Learn more

10-Day Weather Forecast

Advertisements
Track Severe Weather on mobile